N726JM KMCO-MYNN
Flight info
| Callsign | N726JM |
|---|---|
| Flight time | 0h 47m |
| Altitude | 30000 |
| Route | DDANY3 JIPOD JUNIP ZFP BR63V HANKX |
| Aircraft | GLF6/M-SBDE2E3FGHIJ4J5M1RWXY/LB1D1 |
Departure
| Time | 2026-05-03 20:35 |
|---|---|
| Airport | Orlando International Airport (KMCO) |
Arrival
| Time | 2026-05-03 21:23 |
|---|---|
| Airport | Lynden Pindling International Airport (MYNN) |
| Time | Latitude | Longitude | Altitude | Speed | Heading |
|---|---|---|---|---|---|
| 2026-05-03 20:19 | 28.43279 | -81.33150 | 94 ft | 0 kts | 359° |
| 2026-05-03 20:29 | 28.43282 | -81.33149 | 94 ft | 0 kts | 8° |
| 2026-05-03 20:30 | 28.43288 | -81.33141 | 94 ft | 1 kts | 61° |
| 2026-05-03 20:30 | 28.43288 | -81.33122 | 94 ft | 3 kts | 92° |
| 2026-05-03 20:30 | 28.43287 | -81.33088 | 94 ft | 5 kts | 92° |
| 2026-05-03 20:30 | 28.43285 | -81.33041 | 94 ft | 6 kts | 93° |
| 2026-05-03 20:31 | 28.43282 | -81.32983 | 94 ft | 8 kts | 93° |
| 2026-05-03 20:31 | 28.43257 | -81.32925 | 94 ft | 9 kts | 171° |
| 2026-05-03 20:31 | 28.43186 | -81.32924 | 94 ft | 11 kts | 180° |
| 2026-05-03 20:31 | 28.43100 | -81.32925 | 94 ft | 13 kts | 181° |
| 2026-05-03 20:32 | 28.43003 | -81.32927 | 94 ft | 14 kts | 179° |
| 2026-05-03 20:32 | 28.42856 | -81.32922 | 94 ft | 17 kts | 179° |
| 2026-05-03 20:32 | 28.42775 | -81.32920 | 94 ft | 18 kts | 179° |
| 2026-05-03 20:32 | 28.42642 | -81.32918 | 94 ft | 19 kts | 180° |
| 2026-05-03 20:33 | 28.42502 | -81.32918 | 94 ft | 21 kts | 179° |
| 2026-05-03 20:33 | 28.42348 | -81.32916 | 94 ft | 22 kts | 180° |
| 2026-05-03 20:33 | 28.42190 | -81.32914 | 94 ft | 23 kts | 179° |
| 2026-05-03 20:33 | 28.42019 | -81.32913 | 94 ft | 24 kts | 180° |
| 2026-05-03 20:34 | 28.41843 | -81.32912 | 94 ft | 26 kts | 179° |
| 2026-05-03 20:34 | 28.41685 | -81.32908 | 94 ft | 21 kts | 180° |
| 2026-05-03 20:34 | 28.41555 | -81.32898 | 91 ft | 14 kts | 147° |
| 2026-05-03 20:34 | 28.41538 | -81.32785 | 91 ft | 15 kts | 90° |
| 2026-05-03 20:35 | 28.41561 | -81.32669 | 92 ft | 15 kts | 30° |
| 2026-05-03 20:35 | 28.41706 | -81.32661 | 94 ft | 40 kts | 359° |
| 2026-05-03 20:35 | 28.42435 | -81.32674 | 145 ft | 159 kts | 1° |
| 2026-05-03 20:35 | 28.43585 | -81.32694 | 1525 ft | 171 kts | 4° |
| 2026-05-03 20:36 | 28.44697 | -81.32211 | 2713 ft | 200 kts | 42° |
| 2026-05-03 20:36 | 28.45593 | -81.30862 | 3833 ft | 235 kts | 56° |
| 2026-05-03 20:36 | 28.46427 | -81.29088 | 4579 ft | 277 kts | 75° |
| 2026-05-03 20:36 | 28.46268 | -81.27056 | 6405 ft | 270 kts | 108° |
| 2026-05-03 20:37 | 28.45571 | -81.25127 | 7830 ft | 280 kts | 114° |
| 2026-05-03 20:37 | 28.44712 | -81.23093 | 9036 ft | 295 kts | 115° |
| 2026-05-03 20:37 | 28.43813 | -81.21062 | 10426 ft | 302 kts | 115° |
| 2026-05-03 20:37 | 28.42792 | -81.18768 | 10504 ft | 356 kts | 116° |
| 2026-05-03 20:38 | 28.41625 | -81.16183 | 11021 ft | 386 kts | 118° |
| 2026-05-03 20:38 | 28.40415 | -81.13507 | 12584 ft | 384 kts | 121° |
| 2026-05-03 20:38 | 28.39187 | -81.10815 | 13691 ft | 395 kts | 122° |
| 2026-05-03 20:38 | 28.37918 | -81.08038 | 14574 ft | 409 kts | 122° |
| 2026-05-03 20:39 | 28.36645 | -81.05236 | 15993 ft | 407 kts | 122° |
| 2026-05-03 20:39 | 28.35344 | -81.02382 | 16930 ft | 420 kts | 122° |
| 2026-05-03 20:39 | 28.34031 | -80.99500 | 18025 ft | 426 kts | 122° |
| 2026-05-03 20:39 | 28.32702 | -80.96584 | 19170 ft | 432 kts | 122° |
| 2026-05-03 20:40 | 28.31303 | -80.93522 | 20178 ft | 442 kts | 122° |
| 2026-05-03 20:40 | 28.29906 | -80.90460 | 21333 ft | 448 kts | 123° |
| 2026-05-03 20:40 | 28.28484 | -80.87318 | 22394 ft | 457 kts | 121° |
| 2026-05-03 20:40 | 28.27300 | -80.83935 | 23119 ft | 467 kts | 118° |
| 2026-05-03 20:41 | 28.26008 | -80.80647 | 23096 ft | 467 kts | 118° |
| 2026-05-03 20:41 | 28.24748 | -80.77240 | 23083 ft | 465 kts | 117° |
| 2026-05-03 20:41 | 28.23508 | -80.73814 | 23303 ft | 482 kts | 117° |
| 2026-05-03 20:41 | 28.22288 | -80.70413 | 24898 ft | 472 kts | 117° |
| 2026-05-03 20:42 | 28.21067 | -80.67007 | 25966 ft | 477 kts | 117° |
| 2026-05-03 20:42 | 28.19890 | -80.63480 | 26414 ft | 497 kts | 115° |
| 2026-05-03 20:42 | 28.18700 | -80.59837 | 27506 ft | 497 kts | 116° |
| 2026-05-03 20:42 | 28.17512 | -80.56239 | 28341 ft | 504 kts | 116° |
| 2026-05-03 20:43 | 28.16278 | -80.52515 | 28949 ft | 515 kts | 116° |
| 2026-05-03 20:43 | 28.15025 | -80.48724 | 29924 ft | 517 kts | 116° |
| 2026-05-03 20:43 | 28.13765 | -80.44925 | 30558 ft | 527 kts | 116° |
| 2026-05-03 20:43 | 28.12489 | -80.41081 | 31080 ft | 538 kts | 116° |
| 2026-05-03 20:44 | 28.11127 | -80.37080 | 31129 ft | 556 kts | 120° |
| 2026-05-03 20:44 | 28.07063 | -80.29700 | 31170 ft | 546 kts | 143° |
| 2026-05-03 20:44 | 28.04098 | -80.27206 | 31220 ft | 525 kts | 160° |
| 2026-05-03 20:45 | 28.00950 | -80.25597 | 31225 ft | 521 kts | 163° |
| 2026-05-03 20:45 | 27.94816 | -80.21337 | 31131 ft | 529 kts | 156° |
| 2026-05-03 20:46 | 27.89057 | -80.17137 | 31127 ft | 529 kts | 156° |
| 2026-05-03 20:46 | 27.83313 | -80.12956 | 31134 ft | 529 kts | 156° |
| 2026-05-03 20:47 | 27.76940 | -80.08323 | 31135 ft | 529 kts | 156° |
| 2026-05-03 20:47 | 27.70629 | -80.03743 | 31131 ft | 529 kts | 156° |
| 2026-05-03 20:48 | 27.64715 | -79.99455 | 31117 ft | 530 kts | 156° |
| 2026-05-03 20:48 | 27.58560 | -79.94999 | 31120 ft | 530 kts | 156° |
| 2026-05-03 20:49 | 27.52393 | -79.90540 | 31096 ft | 530 kts | 156° |
| 2026-05-03 20:49 | 27.46187 | -79.86060 | 31097 ft | 530 kts | 155° |
| 2026-05-03 20:50 | 27.40018 | -79.81612 | 31100 ft | 529 kts | 156° |
| 2026-05-03 20:50 | 27.33841 | -79.77164 | 31090 ft | 529 kts | 155° |
| 2026-05-03 20:51 | 27.27703 | -79.72747 | 31096 ft | 529 kts | 155° |
| 2026-05-03 20:51 | 27.24784 | -79.70127 | 31105 ft | 542 kts | 144° |
| 2026-05-03 20:51 | 27.22238 | -79.66926 | 31113 ft | 553 kts | 135° |
| 2026-05-03 20:52 | 27.17548 | -79.60035 | 31113 ft | 554 kts | 134° |
| 2026-05-03 20:52 | 27.12895 | -79.53197 | 31093 ft | 554 kts | 134° |
| 2026-05-03 20:53 | 27.08195 | -79.46304 | 31097 ft | 553 kts | 134° |
| 2026-05-03 20:53 | 27.03527 | -79.39468 | 31116 ft | 553 kts | 134° |
| 2026-05-03 20:54 | 26.98892 | -79.32689 | 31143 ft | 551 kts | 134° |
| 2026-05-03 20:54 | 26.91870 | -79.22459 | 31092 ft | 550 kts | 135° |
| 2026-05-03 20:55 | 26.87187 | -79.15730 | 31098 ft | 550 kts | 135° |
| 2026-05-03 20:55 | 26.82476 | -79.08974 | 31096 ft | 550 kts | 135° |
| 2026-05-03 20:56 | 26.77778 | -79.02248 | 31096 ft | 550 kts | 135° |
| 2026-05-03 20:56 | 26.73077 | -78.95528 | 31095 ft | 549 kts | 135° |
| 2026-05-03 20:57 | 26.68390 | -78.88836 | 31097 ft | 549 kts | 135° |
| 2026-05-03 20:57 | 26.63667 | -78.82104 | 31097 ft | 549 kts | 135° |
| 2026-05-03 20:58 | 26.58977 | -78.75429 | 31106 ft | 548 kts | 134° |
| 2026-05-03 20:58 | 26.54268 | -78.68737 | 31097 ft | 548 kts | 134° |
| 2026-05-03 20:59 | 26.49664 | -78.62187 | 31002 ft | 503 kts | 135° |
| 2026-05-03 20:59 | 26.45381 | -78.56133 | 30834 ft | 499 kts | 135° |
| 2026-05-03 21:00 | 26.41798 | -78.51063 | 30808 ft | 501 kts | 135° |
| 2026-05-03 21:00 | 26.36772 | -78.43958 | 30380 ft | 499 kts | 135° |
| 2026-05-03 21:01 | 26.34610 | -78.40904 | 29859 ft | 493 kts | 135° |
| 2026-05-03 21:01 | 26.32506 | -78.37936 | 29328 ft | 490 kts | 135° |
| 2026-05-03 21:01 | 26.30406 | -78.34975 | 28796 ft | 485 kts | 135° |
| 2026-05-03 21:01 | 26.28411 | -78.32165 | 28267 ft | 482 kts | 135° |
| 2026-05-03 21:02 | 26.26326 | -78.29227 | 27711 ft | 478 kts | 135° |
| 2026-05-03 21:02 | 26.24269 | -78.26334 | 27175 ft | 475 kts | 135° |
| 2026-05-03 21:02 | 26.22231 | -78.23467 | 26651 ft | 472 kts | 135° |
| 2026-05-03 21:02 | 26.20199 | -78.20611 | 26139 ft | 468 kts | 134° |
| 2026-05-03 21:03 | 26.18195 | -78.17796 | 25627 ft | 465 kts | 134° |
| 2026-05-03 21:03 | 26.16189 | -78.14980 | 25116 ft | 462 kts | 134° |
| 2026-05-03 21:03 | 26.14224 | -78.12225 | 24614 ft | 459 kts | 134° |
| 2026-05-03 21:03 | 26.12248 | -78.09453 | 24105 ft | 456 kts | 134° |
| 2026-05-03 21:04 | 26.10284 | -78.06701 | 23603 ft | 452 kts | 134° |
| 2026-05-03 21:04 | 26.08338 | -78.03975 | 23111 ft | 448 kts | 134° |
| 2026-05-03 21:04 | 26.06391 | -78.01249 | 22620 ft | 444 kts | 134° |
| 2026-05-03 21:04 | 26.04496 | -77.98600 | 22133 ft | 440 kts | 134° |
| 2026-05-03 21:05 | 26.02609 | -77.95962 | 21648 ft | 436 kts | 134° |
| 2026-05-03 21:05 | 26.00705 | -77.93301 | 21162 ft | 433 kts | 133° |
| 2026-05-03 21:05 | 25.98821 | -77.90671 | 20686 ft | 429 kts | 133° |
| 2026-05-03 21:05 | 25.96972 | -77.88090 | 20216 ft | 425 kts | 133° |
| 2026-05-03 21:06 | 25.95147 | -77.85546 | 19752 ft | 422 kts | 133° |
| 2026-05-03 21:06 | 25.93313 | -77.82989 | 19292 ft | 419 kts | 133° |
| 2026-05-03 21:06 | 25.91509 | -77.80476 | 18830 ft | 416 kts | 133° |
| 2026-05-03 21:06 | 25.89720 | -77.77984 | 18367 ft | 412 kts | 133° |
| 2026-05-03 21:07 | 25.87957 | -77.75531 | 17916 ft | 409 kts | 133° |
| 2026-05-03 21:07 | 25.86181 | -77.73062 | 17466 ft | 406 kts | 133° |
| 2026-05-03 21:07 | 25.84433 | -77.70631 | 17021 ft | 403 kts | 133° |
| 2026-05-03 21:07 | 25.82673 | -77.68184 | 16566 ft | 400 kts | 132° |
| 2026-05-03 21:08 | 25.80943 | -77.65782 | 16107 ft | 397 kts | 132° |
| 2026-05-03 21:08 | 25.79220 | -77.63390 | 15660 ft | 395 kts | 132° |
| 2026-05-03 21:08 | 25.77521 | -77.61034 | 15236 ft | 392 kts | 132° |
| 2026-05-03 21:08 | 25.75815 | -77.58669 | 14804 ft | 390 kts | 132° |
| 2026-05-03 21:09 | 25.74139 | -77.56345 | 14376 ft | 387 kts | 132° |
| 2026-05-03 21:09 | 25.72457 | -77.54015 | 13946 ft | 384 kts | 132° |
| 2026-05-03 21:09 | 25.70868 | -77.51828 | 13596 ft | 380 kts | 133° |
| 2026-05-03 21:09 | 25.68823 | -77.50063 | 13437 ft | 369 kts | 158° |
| 2026-05-03 21:10 | 25.66375 | -77.49428 | 13265 ft | 360 kts | 182° |
| 2026-05-03 21:10 | 25.63921 | -77.49822 | 12960 ft | 353 kts | 196° |
| 2026-05-03 21:10 | 25.61566 | -77.50553 | 12642 ft | 351 kts | 199° |
| 2026-05-03 21:10 | 25.59243 | -77.51359 | 12377 ft | 349 kts | 200° |
| 2026-05-03 21:11 | 25.56922 | -77.52184 | 12121 ft | 349 kts | 200° |
| 2026-05-03 21:11 | 25.54604 | -77.53013 | 11718 ft | 348 kts | 200° |
| 2026-05-03 21:11 | 25.52318 | -77.53834 | 11332 ft | 345 kts | 200° |
| 2026-05-03 21:11 | 25.50049 | -77.54649 | 10964 ft | 346 kts | 200° |
| 2026-05-03 21:12 | 25.47840 | -77.55437 | 10564 ft | 314 kts | 200° |
| 2026-05-03 21:12 | 25.45859 | -77.56145 | 10194 ft | 288 kts | 200° |
| 2026-05-03 21:12 | 25.43973 | -77.56819 | 9865 ft | 284 kts | 200° |
| 2026-05-03 21:12 | 25.42101 | -77.57494 | 9608 ft | 281 kts | 200° |
| 2026-05-03 21:13 | 25.40249 | -77.58160 | 9300 ft | 284 kts | 200° |
| 2026-05-03 21:13 | 25.38355 | -77.58834 | 8994 ft | 283 kts | 201° |
| 2026-05-03 21:13 | 25.36482 | -77.59501 | 8651 ft | 281 kts | 200° |
| 2026-05-03 21:13 | 25.34630 | -77.60163 | 8372 ft | 281 kts | 199° |
| 2026-05-03 21:14 | 25.32785 | -77.60822 | 8072 ft | 277 kts | 199° |
| 2026-05-03 21:14 | 25.30937 | -77.61485 | 7767 ft | 278 kts | 199° |
| 2026-05-03 21:14 | 25.29100 | -77.62139 | 7435 ft | 277 kts | 199° |
| 2026-05-03 21:14 | 25.27290 | -77.62785 | 7141 ft | 278 kts | 200° |
| 2026-05-03 21:15 | 25.25449 | -77.63447 | 6839 ft | 273 kts | 199° |
| 2026-05-03 21:15 | 25.23651 | -77.64090 | 6530 ft | 272 kts | 199° |
| 2026-05-03 21:15 | 25.21852 | -77.64731 | 6234 ft | 277 kts | 199° |
| 2026-05-03 21:15 | 25.20042 | -77.65378 | 5938 ft | 271 kts | 199° |
| 2026-05-03 21:16 | 25.18237 | -77.66022 | 5633 ft | 267 kts | 200° |
| 2026-05-03 21:16 | 25.16546 | -77.66625 | 5321 ft | 249 kts | 199° |
| 2026-05-03 21:16 | 25.14914 | -77.67206 | 5069 ft | 248 kts | 199° |
| 2026-05-03 21:16 | 25.13281 | -77.67788 | 4796 ft | 250 kts | 199° |
| 2026-05-03 21:17 | 25.11588 | -77.68229 | 4504 ft | 251 kts | 185° |
| 2026-05-03 21:17 | 25.10418 | -77.68289 | 4341 ft | 251 kts | 184° |
| 2026-05-03 21:17 | 25.08111 | -77.68348 | 3965 ft | 244 kts | 182° |
| 2026-05-03 21:17 | 25.06482 | -77.68356 | 3696 ft | 228 kts | 180° |
| 2026-05-03 21:18 | 25.04960 | -77.67933 | 3081 ft | 232 kts | 144° |
| 2026-05-03 21:18 | 25.04106 | -77.66576 | 2999 ft | 209 kts | 108° |
| 2026-05-03 21:18 | 25.03819 | -77.65050 | 2789 ft | 198 kts | 98° |
| 2026-05-03 21:18 | 25.03680 | -77.63563 | 2528 ft | 193 kts | 93° |
| 2026-05-03 21:19 | 25.03610 | -77.62103 | 2348 ft | 180 kts | 92° |
| 2026-05-03 21:19 | 25.03578 | -77.60845 | 2162 ft | 148 kts | 91° |
| 2026-05-03 21:19 | 25.03564 | -77.59784 | 1931 ft | 130 kts | 89° |
| 2026-05-03 21:19 | 25.03558 | -77.58808 | 1821 ft | 129 kts | 89° |
| 2026-05-03 21:20 | 25.03558 | -77.57806 | 1671 ft | 129 kts | 89° |
| 2026-05-03 21:20 | 25.03553 | -77.56806 | 1416 ft | 131 kts | 87° |
| 2026-05-03 21:20 | 25.03554 | -77.55851 | 1136 ft | 122 kts | 87° |
| 2026-05-03 21:20 | 25.03561 | -77.54929 | 964 ft | 122 kts | 86° |
| 2026-05-03 21:21 | 25.03567 | -77.53995 | 820 ft | 123 kts | 88° |
| 2026-05-03 21:21 | 25.03569 | -77.53040 | 664 ft | 128 kts | 87° |
| 2026-05-03 21:21 | 25.03578 | -77.52076 | 599 ft | 122 kts | 89° |
| 2026-05-03 21:21 | 25.03587 | -77.51123 | 484 ft | 122 kts | 87° |
| 2026-05-03 21:22 | 25.03600 | -77.50176 | 359 ft | 125 kts | 86° |
| 2026-05-03 21:22 | 25.03616 | -77.49215 | 251 ft | 125 kts | 88° |
| 2026-05-03 21:22 | 25.03599 | -77.48247 | 81 ft | 127 kts | 89° |
| 2026-05-03 21:22 | 25.03599 | -77.47357 | 26 ft | 103 kts | 86° |
| 2026-05-03 21:23 | 25.03600 | -77.46714 | 25 ft | 67 kts | 90° |
| 2026-05-03 21:23 | 25.03606 | -77.46271 | 25 ft | 41 kts | 89° |
| 2026-05-03 21:23 | 25.03602 | -77.46079 | 25 ft | 19 kts | 109° |
| 2026-05-03 21:23 | 25.03513 | -77.45966 | 25 ft | 20 kts | 134° |
| 2026-05-03 21:24 | 25.03408 | -77.45852 | 25 ft | 21 kts | 134° |
| 2026-05-03 21:24 | 25.03304 | -77.45733 | 25 ft | 17 kts | 134° |
| 2026-05-03 21:24 | 25.03209 | -77.45705 | 25 ft | 14 kts | 195° |
| 2026-05-03 21:24 | 25.03124 | -77.45649 | 25 ft | 12 kts | 135° |
| 2026-05-03 21:25 | 25.03082 | -77.45654 | 25 ft | 0 kts | 224° |